sensor_id;sensor_type;location;lat;lon;timestamp;pressure;altitude;pressure_sealevel;temperature;humidity
74169;BME280;62523;53.336;83.690;2023-10-08T00:01:06;99389.41;;;6.05;100.00
74169;BME280;62523;53.336;83.690;2023-10-08T00:06:07;99387.75;;;6.02;100.00
74169;BME280;62523;53.336;83.690;2023-10-08T00:11:20;99382.81;;;6.18;100.00
74169;BME280;62523;53.336;83.690;2023-10-08T00:16:23;99375.16;;;6.13;100.00
74169;BME280;62523;53.336;83.690;2023-10-08T00:21:25;99391.94;;;6.06;100.00
74169;BME280;62523;53.336;83.690;2023-10-08T00:26:33;99380.81;;;6.25;100.00
74169;BME280;62523;53.336;83.690;2023-10-08T00:31:36;99378.59;;;6.38;100.00
74169;BME280;62523;53.336;83.690;2023-10-08T00:36:43;99375.06;;;6.39;100.00
74169;BME280;62523;53.336;83.690;2023-10-08T00:41:45;99370.94;;;6.33;100.00
74169;BME280;62523;53.336;83.690;2023-10-08T00:46:49;99378.88;;;6.30;100.00
74169;BME280;62523;53.336;83.690;2023-10-08T00:51:53;99392.53;;;6.38;100.00
74169;BME280;62523;53.336;83.690;2023-10-08T00:57:10;99380.84;;;6.47;100.00
74169;BME280;62523;53.336;83.690;2023-10-08T01:02:17;99392.91;;;6.51;100.00
74169;BME280;62523;53.336;83.690;2023-10-08T01:07:22;99386.47;;;6.60;100.00
74169;BME280;62523;53.336;83.690;2023-10-08T01:12:26;99395.84;;;6.65;100.00
74169;BME280;62523;53.336;83.690;2023-10-08T01:17:45;99391.09;;;6.75;100.00
74169;BME280;62523;53.336;83.690;2023-10-08T01:22:52;99397.56;;;6.88;100.00
74169;BME280;62523;53.336;83.690;2023-10-08T01:27:57;99392.66;;;7.01;100.00
74169;BME280;62523;53.336;83.690;2023-10-08T01:33:02;99395.22;;;7.03;100.00
74169;BME280;62523;53.336;83.690;2023-10-08T01:38:04;99386.94;;;7.13;100.00
74169;BME280;62523;53.336;83.690;2023-10-08T01:43:08;99385.13;;;7.36;100.00
74169;BME280;62523;53.336;83.690;2023-10-08T01:48:11;99385.34;;;7.52;100.00
74169;BME280;62523;53.336;83.690;2023-10-08T01:53:13;99382.97;;;7.66;100.00
74169;BME280;62523;53.336;83.690;2023-10-08T01:58:17;99384.78;;;7.85;100.00
74169;BME280;62523;53.336;83.690;2023-10-08T02:03:20;99378.25;;;8.14;100.00
74169;BME280;62523;53.336;83.690;2023-10-08T02:08:23;99383.66;;;8.49;100.00
74169;BME280;62523;53.336;83.690;2023-10-08T02:13:27;99378.75;;;8.60;100.00
74169;BME280;62523;53.336;83.690;2023-10-08T02:18:28;99380.50;;;8.97;100.00
74169;BME280;62523;53.336;83.690;2023-10-08T02:23:31;99371.00;;;8.95;100.00
74169;BME280;62523;53.336;83.690;2023-10-08T02:28:36;99371.31;;;9.06;100.00
74169;BME280;62523;53.336;83.690;2023-10-08T02:33:39;99379.72;;;9.13;100.00
74169;BME280;62523;53.336;83.690;2023-10-08T02:38:41;99377.25;;;9.10;100.00
74169;BME280;62523;53.336;83.690;2023-10-08T02:43:42;99386.78;;;9.12;100.00
74169;BME280;62523;53.336;83.690;2023-10-08T02:48:46;99372.75;;;9.12;100.00
74169;BME280;62523;53.336;83.690;2023-10-08T02:53:47;99378.66;;;9.17;100.00
74169;BME280;62523;53.336;83.690;2023-10-08T02:58:50;99383.28;;;9.12;100.00
74169;BME280;62523;53.336;83.690;2023-10-08T03:03:52;99387.44;;;8.98;100.00
74169;BME280;62523;53.336;83.690;2023-10-08T03:09:05;99403.88;;;8.85;100.00
74169;BME280;62523;53.336;83.690;2023-10-08T03:14:06;99408.00;;;8.71;100.00
74169;BME280;62523;53.336;83.690;2023-10-08T03:19:16;99415.50;;;8.79;100.00
74169;BME280;62523;53.336;83.690;2023-10-08T03:24:21;99408.31;;;8.65;100.00
74169;BME280;62523;53.336;83.690;2023-10-08T03:29:35;99426.13;;;8.58;100.00
74169;BME280;62523;53.336;83.690;2023-10-08T03:34:49;99423.66;;;8.92;100.00
74169;BME280;62523;53.336;83.690;2023-10-08T03:39:51;99422.44;;;8.63;100.00
74169;BME280;62523;53.336;83.690;2023-10-08T03:45:01;99423.06;;;8.68;100.00
74169;BME280;62523;53.336;83.690;2023-10-08T03:50:11;99434.91;;;8.57;100.00
74169;BME280;62523;53.336;83.690;2023-10-08T03:55:17;99431.34;;;8.77;100.00
74169;BME280;62523;53.336;83.690;2023-10-08T04:00:27;99442.22;;;8.89;100.00
74169;BME280;62523;53.336;83.690;2023-10-08T04:05:42;99442.22;;;9.25;100.00
74169;BME280;62523;53.336;83.690;2023-10-08T04:11:06;99436.97;;;9.42;100.00
74169;BME280;62523;53.336;83.690;2023-10-08T04:16:26;99439.28;;;9.83;100.00
74169;BME280;62523;53.336;83.690;2023-10-08T04:21:29;99440.72;;;10.07;100.00
74169;BME280;62523;53.336;83.690;2023-10-08T04:26:35;99436.63;;;10.01;100.00
74169;BME280;62523;53.336;83.690;2023-10-08T04:31:36;99434.41;;;9.93;100.00
74169;BME280;62523;53.336;83.690;2023-10-08T04:36:45;99431.69;;;9.95;100.00
74169;BME280;62523;53.336;83.690;2023-10-08T04:41:47;99435.38;;;10.08;100.00
74169;BME280;62523;53.336;83.690;2023-10-08T04:46:54;99436.56;;;10.02;100.00
74169;BME280;62523;53.336;83.690;2023-10-08T04:51:58;99439.34;;;9.99;100.00
74169;BME280;62523;53.336;83.690;2023-10-08T04:57:00;99437.25;;;10.06;100.00
74169;BME280;62523;53.336;83.690;2023-10-08T05:02:05;99433.31;;;9.97;100.00
74169;BME280;62523;53.336;83.690;2023-10-08T05:07:35;99440.16;;;10.17;100.00
74169;BME280;62523;53.336;83.690;2023-10-08T05:12:45;99439.41;;;10.33;100.00
74169;BME280;62523;53.336;83.690;2023-10-08T05:17:52;99460.22;;;10.53;100.00
74169;BME280;62523;53.336;83.690;2023-10-08T05:22:53;99454.75;;;10.90;100.00
74169;BME280;62523;53.336;83.690;2023-10-08T05:28:07;99448.78;;;10.86;100.00
74169;BME280;62523;53.336;83.690;2023-10-08T05:33:12;99452.94;;;10.90;100.00
74169;BME280;62523;53.336;83.690;2023-10-08T05:38:25;99458.72;;;11.13;100.00
74169;BME280;62523;53.336;83.690;2023-10-08T05:43:37;99469.44;;;10.94;100.00
74169;BME280;62523;53.336;83.690;2023-10-08T05:48:41;99467.00;;;10.91;100.00
74169;BME280;62523;53.336;83.690;2023-10-08T05:53:46;99481.84;;;11.07;100.00
74169;BME280;62523;53.336;83.690;2023-10-08T05:58:50;99482.00;;;11.36;100.00
74169;BME280;62523;53.336;83.690;2023-10-08T06:04:12;99480.03;;;11.40;100.00
74169;BME280;62523;53.336;83.690;2023-10-08T06:09:42;99484.81;;;11.79;100.00
74169;BME280;62523;53.336;83.690;2023-10-08T06:14:51;99482.13;;;11.95;100.00
74169;BME280;62523;53.336;83.690;2023-10-08T06:20:09;99481.84;;;12.00;100.00
74169;BME280;62523;53.336;83.690;2023-10-08T06:25:17;99475.44;;;11.90;100.00
74169;BME280;62523;53.336;83.690;2023-10-08T06:30:24;99478.41;;;12.14;100.00
74169;BME280;62523;53.336;83.690;2023-10-08T06:35:30;99494.91;;;12.17;100.00
74169;BME280;62523;53.336;83.690;2023-10-08T06:40:35;99487.84;;;12.32;100.00
74169;BME280;62523;53.336;83.690;2023-10-08T06:45:40;99488.81;;;12.45;100.00
74169;BME280;62523;53.336;83.690;2023-10-08T06:50:42;99495.03;;;12.59;100.00
74169;BME280;62523;53.336;83.690;2023-10-08T06:55:44;99494.84;;;12.62;100.00
74169;BME280;62523;53.336;83.690;2023-10-08T07:00:46;99490.31;;;12.78;100.00
74169;BME280;62523;53.336;83.690;2023-10-08T07:05:49;99482.41;;;13.05;100.00
74169;BME280;62523;53.336;83.690;2023-10-08T07:11:02;99479.34;;;12.84;100.00
74169;BME280;62523;53.336;83.690;2023-10-08T07:16:20;99490.69;;;13.14;100.00
74169;BME280;62523;53.336;83.690;2023-10-08T07:21:22;99484.81;;;13.37;100.00
74169;BME280;62523;53.336;83.690;2023-10-08T07:26:30;99485.91;;;13.47;100.00
74169;BME280;62523;53.336;83.690;2023-10-08T07:31:38;99489.09;;;13.52;100.00
74169;BME280;62523;53.336;83.690;2023-10-08T07:36:46;99484.25;;;13.32;100.00
74169;BME280;62523;53.336;83.690;2023-10-08T07:41:52;99487.91;;;13.44;100.00
74169;BME280;62523;53.336;83.690;2023-10-08T07:46:55;99483.69;;;13.81;100.00
74169;BME280;62523;53.336;83.690;2023-10-08T07:52:00;99469.94;;;14.14;100.00
74169;BME280;62523;53.336;83.690;2023-10-08T07:57:02;99471.19;;;14.22;100.00
74169;BME280;62523;53.336;83.690;2023-10-08T08:02:10;99477.56;;;14.70;100.00
74169;BME280;62523;53.336;83.690;2023-10-08T08:07:12;99467.63;;;14.98;100.00
74169;BME280;62523;53.336;83.690;2023-10-08T08:12:18;99477.44;;;14.85;100.00
74169;BME280;62523;53.336;83.690;2023-10-08T08:17:21;99469.44;;;14.61;100.00
74169;BME280;62523;53.336;83.690;2023-10-08T08:22:23;99467.97;;;14.93;100.00
74169;BME280;62523;53.336;83.690;2023-10-08T08:27:32;99465.88;;;15.47;100.00
74169;BME280;62523;53.336;83.690;2023-10-08T08:32:33;99465.31;;;15.66;100.00
74169;BME280;62523;53.336;83.690;2023-10-08T08:37:36;99451.13;;;15.19;100.00
74169;BME280;62523;53.336;83.690;2023-10-08T08:42:39;99450.44;;;15.87;100.00
74169;BME280;62523;53.336;83.690;2023-10-08T08:47:41;99449.69;;;15.74;100.00
74169;BME280;62523;53.336;83.690;2023-10-08T08:52:43;99442.16;;;15.92;100.00
74169;BME280;62523;53.336;83.690;2023-10-08T08:57:48;99435.28;;;16.12;100.00
74169;BME280;62523;53.336;83.690;2023-10-08T09:02:50;99437.75;;;15.80;100.00
74169;BME280;62523;53.336;83.690;2023-10-08T09:08:01;99443.19;;;15.54;100.00
74169;BME280;62523;53.336;83.690;2023-10-08T09:13:08;99432.06;;;15.73;100.00
74169;BME280;62523;53.336;83.690;2023-10-08T09:18:10;99435.47;;;15.75;100.00
74169;BME280;62523;53.336;83.690;2023-10-08T09:23:13;99434.19;;;16.03;100.00
74169;BME280;62523;53.336;83.690;2023-10-08T09:28:15;99429.91;;;15.89;100.00
74169;BME280;62523;53.336;83.690;2023-10-08T09:33:17;99423.66;;;15.90;100.00
74169;BME280;62523;53.336;83.690;2023-10-08T09:38:19;99432.38;;;16.04;100.00
74169;BME280;62523;53.336;83.690;2023-10-08T09:43:24;99428.16;;;16.01;100.00
74169;BME280;62523;53.336;83.690;2023-10-08T09:48:29;99421.00;;;15.90;100.00
74169;BME280;62523;53.336;83.690;2023-10-08T09:54:02;99434.28;;;15.90;100.00
74169;BME280;62523;53.336;83.690;2023-10-08T09:59:06;99433.09;;;16.17;100.00
74169;BME280;62523;53.336;83.690;2023-10-08T10:04:11;99427.41;;;15.88;100.00
74169;BME280;62523;53.336;83.690;2023-10-08T10:09:20;99432.56;;;15.89;100.00
74169;BME280;62523;53.336;83.690;2023-10-08T10:14:24;99432.56;;;15.78;100.00
74169;BME280;62523;53.336;83.690;2023-10-08T10:19:29;99439.63;;;15.66;100.00
74169;BME280;62523;53.336;83.690;2023-10-08T10:24:36;99434.94;;;15.46;100.00
74169;BME280;62523;53.336;83.690;2023-10-08T10:29:42;99432.94;;;15.49;100.00
74169;BME280;62523;53.336;83.690;2023-10-08T10:34:45;99441.72;;;15.74;100.00
74169;BME280;62523;53.336;83.690;2023-10-08T10:39:54;99435.00;;;15.92;100.00
74169;BME280;62523;53.336;83.690;2023-10-08T10:45:03;99436.03;;;15.79;100.00
74169;BME280;62523;53.336;83.690;2023-10-08T10:50:10;99440.91;;;15.61;100.00
74169;BME280;62523;53.336;83.690;2023-10-08T10:55:32;99451.63;;;15.24;100.00
74169;BME280;62523;53.336;83.690;2023-10-08T11:00:34;99450.09;;;15.08;100.00
74169;BME280;62523;53.336;83.690;2023-10-08T11:05:37;99450.16;;;15.20;100.00
74169;BME280;62523;53.336;83.690;2023-10-08T11:10:42;99459.69;;;14.98;100.00
74169;BME280;62523;53.336;83.690;2023-10-08T11:16:08;99451.78;;;15.09;100.00
74169;BME280;62523;53.336;83.690;2023-10-08T11:21:19;99461.34;;;14.99;100.00
74169;BME280;62523;53.336;83.690;2023-10-08T11:26:26;99462.81;;;14.79;100.00
74169;BME280;62523;53.336;83.690;2023-10-08T11:31:42;99467.63;;;14.61;100.00
74169;BME280;62523;53.336;83.690;2023-10-08T11:36:44;99470.75;;;14.53;100.00
74169;BME280;62523;53.336;83.690;2023-10-08T11:42:01;99473.84;;;14.22;100.00
74169;BME280;62523;53.336;83.690;2023-10-08T11:47:11;99480.09;;;14.08;100.00
74169;BME280;62523;53.336;83.690;2023-10-08T11:52:13;99481.81;;;14.09;100.00
74169;BME280;62523;53.336;83.690;2023-10-08T11:57:16;99496.19;;;13.92;100.00
74169;BME280;62523;53.336;83.690;2023-10-08T12:02:22;99497.44;;;13.86;100.00
74169;BME280;62523;53.336;83.690;2023-10-08T12:07:24;99506.84;;;13.78;100.00
74169;BME280;62523;53.336;83.690;2023-10-08T12:12:28;99516.66;;;13.63;100.00
74169;BME280;62523;53.336;83.690;2023-10-08T12:17:32;99524.94;;;13.44;100.00
74169;BME280;62523;53.336;83.690;2023-10-08T12:22:40;99531.38;;;13.40;100.00
74169;BME280;62523;53.336;83.690;2023-10-08T12:27:42;99524.94;;;13.44;100.00
74169;BME280;62523;53.336;83.690;2023-10-08T12:32:44;99526.13;;;13.11;100.00
74169;BME280;62523;53.336;83.690;2023-10-08T12:37:47;99544.56;;;12.84;100.00
74169;BME280;62523;53.336;83.690;2023-10-08T12:42:52;99551.75;;;12.67;100.00
74169;BME280;62523;53.336;83.690;2023-10-08T12:47:56;99547.63;;;12.78;100.00
74169;BME280;62523;53.336;83.690;2023-10-08T12:53:00;99549.50;;;12.76;100.00
74169;BME280;62523;53.336;83.690;2023-10-08T12:58:08;99549.50;;;12.61;100.00
74169;BME280;62523;53.336;83.690;2023-10-08T13:03:15;99557.59;;;12.58;100.00
74169;BME280;62523;53.336;83.690;2023-10-08T13:08:24;99559.56;;;12.69;100.00
74169;BME280;62523;53.336;83.690;2023-10-08T13:13:28;99560.34;;;12.57;100.00
74169;BME280;62523;53.336;83.690;2023-10-08T13:18:30;99570.06;;;12.56;100.00
74169;BME280;62523;53.336;83.690;2023-10-08T13:23:34;99568.84;;;12.62;100.00
74169;BME280;62523;53.336;83.690;2023-10-08T13:28:36;99576.69;;;12.19;100.00
74169;BME280;62523;53.336;83.690;2023-10-08T13:33:43;99583.41;;;12.24;100.00
74169;BME280;62523;53.336;83.690;2023-10-08T13:38:50;99582.03;;;12.17;100.00
74169;BME280;62523;53.336;83.690;2023-10-08T13:43:53;99583.72;;;12.04;100.00
74169;BME280;62523;53.336;83.690;2023-10-08T13:49:03;99575.38;;;11.96;100.00
74169;BME280;62523;53.336;83.690;2023-10-08T13:54:15;99586.75;;;12.12;100.00
74169;BME280;62523;53.336;83.690;2023-10-08T13:59:19;99586.06;;;12.08;100.00
74169;BME280;62523;53.336;83.690;2023-10-08T14:04:25;99588.06;;;12.05;100.00
74169;BME280;62523;53.336;83.690;2023-10-08T14:09:41;99589.31;;;12.14;100.00
74169;BME280;62523;53.336;83.690;2023-10-08T14:14:43;99584.81;;;12.00;100.00
74169;BME280;62523;53.336;83.690;2023-10-08T14:19:45;99590.78;;;12.03;100.00
74169;BME280;62523;53.336;83.690;2023-10-08T14:24:54;99589.25;;;11.99;100.00
74169;BME280;62523;53.336;83.690;2023-10-08T14:30:10;99589.41;;;12.12;100.00
74169;BME280;62523;53.336;83.690;2023-10-08T14:35:35;99589.16;;;11.85;100.00
74169;BME280;62523;53.336;83.690;2023-10-08T14:40:55;99584.94;;;11.66;100.00
74169;BME280;62523;53.336;83.690;2023-10-08T14:46:19;99593.03;;;11.79;100.00
74169;BME280;62523;53.336;83.690;2023-10-08T14:51:21;99593.38;;;11.57;100.00
74169;BME280;62523;53.336;83.690;2023-10-08T14:56:34;99596.19;;;11.38;100.00
74169;BME280;62523;53.336;83.690;2023-10-08T15:01:39;99584.88;;;11.36;100.00
74169;BME280;62523;53.336;83.690;2023-10-08T15:06:42;99595.59;;;11.33;100.00
74169;BME280;62523;53.336;83.690;2023-10-08T15:11:44;99587.84;;;11.30;100.00
74169;BME280;62523;53.336;83.690;2023-10-08T15:16:47;99602.47;;;11.20;100.00
74169;BME280;62523;53.336;83.690;2023-10-08T15:21:53;99601.44;;;11.06;100.00
74169;BME280;62523;53.336;83.690;2023-10-08T15:27:00;99604.34;;;11.18;100.00
74169;BME280;62523;53.336;83.690;2023-10-08T15:32:02;99600.84;;;11.17;100.00
74169;BME280;62523;53.336;83.690;2023-10-08T15:37:04;99597.44;;;11.15;100.00
74169;BME280;62523;53.336;83.690;2023-10-08T15:42:06;99595.66;;;11.16;100.00
74169;BME280;62523;53.336;83.690;2023-10-08T15:47:07;99597.50;;;10.98;100.00
74169;BME280;62523;53.336;83.690;2023-10-08T15:52:09;99607.47;;;10.75;100.00
74169;BME280;62523;53.336;83.690;2023-10-08T15:57:10;99606.69;;;10.91;100.00
74169;BME280;62523;53.336;83.690;2023-10-08T16:02:15;99612.59;;;10.78;100.00
74169;BME280;62523;53.336;83.690;2023-10-08T16:07:17;99617.72;;;10.64;100.00
74169;BME280;62523;53.336;83.690;2023-10-08T16:12:24;99612.72;;;10.75;100.00
74169;BME280;62523;53.336;83.690;2023-10-08T16:17:26;99624.09;;;10.42;100.00
74169;BME280;62523;53.336;83.690;2023-10-08T16:22:31;99647.22;;;10.71;100.00
74169;BME280;62523;53.336;83.690;2023-10-08T16:27:33;99641.81;;;10.39;100.00
74169;BME280;62523;53.336;83.690;2023-10-08T16:32:39;99644.97;;;10.28;100.00
74169;BME280;62523;53.336;83.690;2023-10-08T16:37:41;99655.94;;;10.38;100.00
74169;BME280;62523;53.336;83.690;2023-10-08T16:42:47;99661.94;;;10.22;100.00
74169;BME280;62523;53.336;83.690;2023-10-08T16:47:49;99670.22;;;9.96;100.00
74169;BME280;62523;53.336;83.690;2023-10-08T16:52:54;99674.91;;;10.08;100.00
74169;BME280;62523;53.336;83.690;2023-10-08T16:57:57;99675.75;;;10.09;100.00
74169;BME280;62523;53.336;83.690;2023-10-08T17:03:01;99678.53;;;10.05;100.00
74169;BME280;62523;53.336;83.690;2023-10-08T17:08:03;99689.03;;;10.24;100.00
74169;BME280;62523;53.336;83.690;2023-10-08T17:13:05;99678.50;;;10.24;100.00
74169;BME280;62523;53.336;83.690;2023-10-08T17:18:09;99679.72;;;10.17;100.00
74169;BME280;62523;53.336;83.690;2023-10-08T17:23:12;99687.00;;;10.12;100.00
74169;BME280;62523;53.336;83.690;2023-10-08T17:28:15;99685.84;;;10.37;100.00
74169;BME280;62523;53.336;83.690;2023-10-08T17:33:19;99693.94;;;10.32;100.00
74169;BME280;62523;53.336;83.690;2023-10-08T17:38:20;99682.34;;;10.17;100.00
74169;BME280;62523;53.336;83.690;2023-10-08T17:43:22;99675.16;;;10.21;100.00
74169;BME280;62523;53.336;83.690;2023-10-08T17:48:25;99668.88;;;10.23;100.00
74169;BME280;62523;53.336;83.690;2023-10-08T17:53:27;99663.28;;;10.31;100.00
74169;BME280;62523;53.336;83.690;2023-10-08T17:58:29;99670.25;;;10.32;100.00
74169;BME280;62523;53.336;83.690;2023-10-08T18:03:31;99674.00;;;10.45;100.00
74169;BME280;62523;53.336;83.690;2023-10-08T18:08:33;99667.31;;;10.38;100.00
74169;BME280;62523;53.336;83.690;2023-10-08T18:13:38;99675.22;;;10.56;100.00
74169;BME280;62523;53.336;83.690;2023-10-08T18:18:44;99676.22;;;10.71;100.00
74169;BME280;62523;53.336;83.690;2023-10-08T18:23:46;99663.69;;;10.76;100.00
74169;BME280;62523;53.336;83.690;2023-10-08T18:28:48;99660.06;;;10.94;100.00
74169;BME280;62523;53.336;83.690;2023-10-08T18:33:51;99661.47;;;10.84;100.00
74169;BME280;62523;53.336;83.690;2023-10-08T18:38:52;99653.78;;;10.97;100.00
74169;BME280;62523;53.336;83.690;2023-10-08T18:43:54;99643.41;;;10.94;100.00
74169;BME280;62523;53.336;83.690;2023-10-08T18:48:56;99646.78;;;10.80;100.00
74169;BME280;62523;53.336;83.690;2023-10-08T18:53:57;99647.69;;;10.79;100.00
74169;BME280;62523;53.336;83.690;2023-10-08T18:59:01;99656.53;;;10.78;100.00
74169;BME280;62523;53.336;83.690;2023-10-08T19:04:03;99656.47;;;10.62;100.00
74169;BME280;62523;53.336;83.690;2023-10-08T19:09:07;99657.84;;;10.52;100.00
74169;BME280;62523;53.336;83.690;2023-10-08T19:14:12;99649.94;;;10.52;100.00
74169;BME280;62523;53.336;83.690;2023-10-08T19:19:16;99651.84;;;10.50;100.00
74169;BME280;62523;53.336;83.690;2023-10-08T19:24:17;99642.69;;;10.39;100.00
74169;BME280;62523;53.336;83.690;2023-10-08T19:29:19;99641.44;;;10.29;100.00
74169;BME280;62523;53.336;83.690;2023-10-08T19:34:25;99638.00;;;10.27;100.00
74169;BME280;62523;53.336;83.690;2023-10-08T19:39:27;99647.66;;;10.09;100.00
74169;BME280;62523;53.336;83.690;2023-10-08T19:44:29;99645.09;;;10.08;100.00
74169;BME280;62523;53.336;83.690;2023-10-08T19:49:30;99648.09;;;10.00;100.00
74169;BME280;62523;53.336;83.690;2023-10-08T19:54:32;99632.47;;;9.97;100.00
74169;BME280;62523;53.336;83.690;2023-10-08T19:59:36;99638.34;;;10.02;100.00
74169;BME280;62523;53.336;83.690;2023-10-08T20:04:39;99640.59;;;9.92;100.00
74169;BME280;62523;53.336;83.690;2023-10-08T20:09:41;99635.47;;;9.89;100.00
74169;BME280;62523;53.336;83.690;2023-10-08T20:14:43;99636.63;;;9.83;100.00
74169;BME280;62523;53.336;83.690;2023-10-08T20:19:44;99635.56;;;9.88;100.00
74169;BME280;62523;53.336;83.690;2023-10-08T20:24:46;99629.03;;;9.77;100.00
74169;BME280;62523;53.336;83.690;2023-10-08T20:29:47;99629.81;;;9.79;100.00
74169;BME280;62523;53.336;83.690;2023-10-08T20:34:49;99616.72;;;9.78;100.00
74169;BME280;62523;53.336;83.690;2023-10-08T20:39:50;99611.75;;;9.72;100.00
74169;BME280;62523;53.336;83.690;2023-10-08T20:44:52;99615.97;;;9.57;100.00
74169;BME280;62523;53.336;83.690;2023-10-08T20:49:55;99632.31;;;9.63;100.00
74169;BME280;62523;53.336;83.690;2023-10-08T20:54:56;99626.84;;;9.68;100.00
74169;BME280;62523;53.336;83.690;2023-10-08T20:59:57;99640.50;;;9.57;100.00
74169;BME280;62523;53.336;83.690;2023-10-08T21:04:59;99638.84;;;9.74;100.00
74169;BME280;62523;53.336;83.690;2023-10-08T21:10:00;99640.50;;;9.57;100.00
74169;BME280;62523;53.336;83.690;2023-10-08T21:15:02;99640.91;;;9.67;100.00
74169;BME280;62523;53.336;83.690;2023-10-08T21:20:05;99630.19;;;9.53;100.00
74169;BME280;62523;53.336;83.690;2023-10-08T21:25:16;99616.56;;;9.45;100.00
74169;BME280;62523;53.336;83.690;2023-10-08T21:30:21;99618.19;;;9.28;100.00
74169;BME280;62523;53.336;83.690;2023-10-08T21:35:22;99616.69;;;9.22;100.00
74169;BME280;62523;53.336;83.690;2023-10-08T21:40:24;99620.31;;;9.20;100.00
74169;BME280;62523;53.336;83.690;2023-10-08T21:45:26;99601.63;;;9.07;100.00
74169;BME280;62523;53.336;83.690;2023-10-08T21:50:27;99604.34;;;9.06;100.00
74169;BME280;62523;53.336;83.690;2023-10-08T21:55:29;99592.69;;;9.11;100.00
74169;BME280;62523;53.336;83.690;2023-10-08T22:00:31;99586.69;;;9.08;100.00
74169;BME280;62523;53.336;83.690;2023-10-08T22:05:33;99578.34;;;8.99;100.00
74169;BME280;62523;53.336;83.690;2023-10-08T22:10:35;99570.25;;;9.04;100.00
74169;BME280;62523;53.336;83.690;2023-10-08T22:15:37;99570.75;;;9.12;100.00
74169;BME280;62523;53.336;83.690;2023-10-08T22:20:59;99563.75;;;9.11;100.00
74169;BME280;62523;53.336;83.690;2023-10-08T22:26:18;99570.66;;;9.14;100.00
74169;BME280;62523;53.336;83.690;2023-10-08T22:31:25;99565.91;;;9.22;100.00
74169;BME280;62523;53.336;83.690;2023-10-08T22:36:26;99564.81;;;9.26;100.00
74169;BME280;62523;53.336;83.690;2023-10-08T22:41:37;99554.38;;;9.25;100.00
74169;BME280;62523;53.336;83.690;2023-10-08T22:46:44;99563.69;;;9.32;100.00
74169;BME280;62523;53.336;83.690;2023-10-08T22:51:46;99562.69;;;9.34;100.00
74169;BME280;62523;53.336;83.690;2023-10-08T22:56:50;99575.84;;;9.34;100.00
74169;BME280;62523;53.336;83.690;2023-10-08T23:01:51;99569.25;;;9.26;100.00
74169;BME280;62523;53.336;83.690;2023-10-08T23:06:54;99578.81;;;9.27;100.00
74169;BME280;62523;53.336;83.690;2023-10-08T23:11:55;99578.25;;;9.20;100.00
74169;BME280;62523;53.336;83.690;2023-10-08T23:16:57;99579.97;;;9.21;100.00
74169;BME280;62523;53.336;83.690;2023-10-08T23:21:59;99578.34;;;9.18;100.00
74169;BME280;62523;53.336;83.690;2023-10-08T23:27:03;99582.31;;;9.08;100.00
74169;BME280;62523;53.336;83.690;2023-10-08T23:32:04;99589.41;;;9.06;100.00
74169;BME280;62523;53.336;83.690;2023-10-08T23:37:09;99594.56;;;9.08;100.00
74169;BME280;62523;53.336;83.690;2023-10-08T23:42:11;99590.03;;;9.11;100.00
74169;BME280;62523;53.336;83.690;2023-10-08T23:47:35;99599.78;;;9.09;100.00
74169;BME280;62523;53.336;83.690;2023-10-08T23:52:47;99606.09;;;9.05;100.00
74169;BME280;62523;53.336;83.690;2023-10-08T23:57:49;99601.78;;;9.04;100.00
